Time;durP1;ratioP1;P1;durP2;ratioP2;P2;SDS_P1;SDS_P2;PMS_P1;PMS_P2;Temp;Humidity;BMP_temperature;BMP_pressure;BME280_temperature;BME280_humidity;BME280_pressure;Samples;Min_cycle;Max_cycle;Signal;HPM_P1;HPM_P2
2021/08/01 00:00:12;;;;;;;4.83;4.30;;;18.40;99.90;;;;;;5060119;28;20185;-58
2021/08/01 00:02:39;;;;;;;6.30;5.22;;;18.40;99.90;;;;;;5061747;28;20181;-57
2021/08/01 00:05:05;;;;;;;4.95;4.43;;;18.40;99.90;;;;;;5058814;28;20207;-58
2021/08/01 00:07:36;;;;;;;5.82;4.80;;;18.30;99.90;;;;;;5076728;28;20181;-58
2021/08/01 00:10:05;;;;;;;5.63;5.00;;;18.20;99.90;;;;;;5058708;28;20239;-58
2021/08/01 00:12:31;;;;;;;7.35;5.57;;;18.10;99.90;;;;;;5064540;28;20187;-58
2021/08/01 00:14:57;;;;;;;6.53;4.70;;;18.00;99.90;;;;;;5051625;28;20276;-57
2021/08/01 00:17:23;;;;;;;5.20;4.70;;;18.00;99.90;;;;;;5054740;28;20173;-57
2021/08/01 00:19:48;;;;;;;5.00;4.60;;;18.00;99.90;;;;;;5064992;28;20526;-57
2021/08/01 00:22:14;;;;;;;4.77;4.37;;;17.90;99.90;;;;;;5066429;28;20442;-58
2021/08/01 00:24:40;;;;;;;5.45;4.95;;;17.90;99.90;;;;;;5059938;28;20176;-57
2021/08/01 00:27:06;;;;;;;5.00;4.50;;;17.80;99.90;;;;;;5065121;28;20213;-58
2021/08/01 00:29:32;;;;;;;5.00;4.50;;;17.70;99.90;;;;;;5052445;28;20929;-57
2021/08/01 00:32:03;;;;;;;4.97;4.57;;;17.70;99.90;;;;;;5058268;28;20181;-57
2021/08/01 00:34:28;;;;;;;5.68;3.95;;;17.60;99.90;;;;;;5076730;28;20180;-58
2021/08/01 00:36:54;;;;;;;6.30;4.60;;;17.50;99.90;;;;;;5052014;28;20213;-57
2021/08/01 00:39:20;;;;;;;5.90;4.77;;;17.60;99.90;;;;;;5065032;28;20271;-57
2021/08/01 00:41:45;;;;;;;7.17;4.70;;;17.50;99.90;;;;;;5061103;28;20210;-58
2021/08/01 00:44:11;;;;;;;4.80;4.40;;;17.60;99.90;;;;;;5053052;28;20180;-57
2021/08/01 00:46:39;;;;;;;4.90;4.50;;;17.40;99.90;;;;;;5060700;28;20296;-61
2021/08/01 00:49:05;;;;;;;5.38;4.88;;;17.60;99.90;;;;;;5065679;28;20181;-57
2021/08/01 00:51:31;;;;;;;5.27;4.23;;;17.40;99.90;;;;;;5058422;28;20178;-57
2021/08/01 00:53:58;;;;;;;6.07;4.93;;;17.30;99.90;;;;;;5053667;28;20520;-58
2021/08/01 00:56:24;;;;;;;5.22;4.80;;;17.50;99.90;;;;;;5058554;28;20211;-57
2021/08/01 00:58:49;;;;;;;5.93;5.27;;;17.40;99.90;;;;;;5059309;28;20280;-58
2021/08/01 01:01:18;;;;;;;6.00;5.40;;;17.30;99.90;;;;;;5052996;28;20443;-57
2021/08/01 01:04:05;;;;;;;6.47;4.68;;;17.20;99.90;;;;;;5067370;28;20185;-57
2021/08/01 01:06:36;;;;;;;5.85;5.35;;;17.20;99.90;;;;;;5057538;28;20699;-58
2021/08/01 01:09:18;;;;;;;6.38;5.78;;;17.20;99.90;;;;;;5052756;28;20197;-57
2021/08/01 01:11:47;;;;;;;5.55;5.15;;;17.30;99.90;;;;;;5061438;28;20187;-57
2021/08/01 01:14:20;;;;;;;5.95;5.30;;;17.20;99.90;;;;;;5060689;28;20202;-57
2021/08/01 01:16:50;;;;;;;7.20;5.45;;;17.20;99.90;;;;;;5057222;28;20213;-57
2021/08/01 01:19:32;;;;;;;7.38;5.90;;;17.20;99.90;;;;;;5050310;28;20185;-58
2021/08/01 01:22:07;;;;;;;6.95;5.75;;;17.20;99.90;;;;;;5060773;28;20546;-57
2021/08/01 01:24:37;;;;;;;6.30;5.70;;;17.20;99.90;;;;;;5060446;28;20276;-58
2021/08/01 01:27:02;;;;;;;7.50;5.60;;;17.10;99.90;;;;;;5053195;28;20205;-57
2021/08/01 01:30:04;;;;;;;6.07;5.57;;;17.10;99.90;;;;;;5067295;28;20219;-57
2021/08/01 01:32:42;;;;;;;6.68;5.40;;;17.10;99.90;;;;;;5055584;28;20181;-57
2021/08/01 01:35:12;;;;;;;8.10;5.55;;;17.10;99.90;;;;;;5056359;28;20181;-59
2021/08/01 01:37:38;;;;;;;8.07;6.55;;;17.10;99.90;;;;;;5070584;28;20184;-58
2021/08/01 01:40:05;;;;;;;6.53;5.70;;;17.10;99.90;;;;;;5059574;28;20276;-57
2021/08/01 01:42:32;;;;;;;10.02;9.02;;;17.10;99.90;;;;;;5062634;28;20192;-57
2021/08/01 01:45:00;;;;;;;8.57;7.60;;;17.10;99.90;;;;;;5063523;28;20192;-58
2021/08/01 01:47:26;;;;;;;5.57;5.05;;;17.10;99.90;;;;;;5064894;28;20226;-58
2021/08/01 01:49:55;;;;;;;7.63;6.32;;;17.10;99.90;;;;;;5064265;28;20176;-57
2021/08/01 01:52:23;;;;;;;8.30;6.07;;;16.80;99.90;;;;;;5061453;28;20196;-57
2021/08/01 01:54:49;;;;;;;6.35;5.85;;;17.00;99.90;;;;;;5059983;28;20177;-57
2021/08/01 01:57:15;;;;;;;6.72;5.72;;;16.90;99.90;;;;;;5058018;28;20205;-58
2021/08/01 01:59:41;;;;;;;7.10;6.40;;;17.10;99.90;;;;;;5057953;28;20184;-57
2021/08/01 02:02:08;;;;;;;6.80;6.10;;;17.10;99.90;;;;;;5071065;28;20869;-58
2021/08/01 02:04:34;;;;;;;6.43;5.82;;;17.00;99.90;;;;;;5059742;28;20691;-57
2021/08/01 02:07:00;;;;;;;6.13;5.63;;;17.00;99.90;;;;;;5061799;28;20216;-58
2021/08/01 02:09:37;;;;;;;6.97;6.32;;;17.00;99.90;;;;;;5065878;28;20238;-58
2021/08/01 02:12:03;;;;;;;6.13;5.63;;;17.00;99.90;;;;;;5064429;28;20181;-57
2021/08/01 02:14:40;;;;;;;6.50;5.90;;;17.20;99.90;;;;;;5060852;28;20193;-57
2021/08/01 02:17:11;;;;;;;7.90;7.07;;;16.90;99.90;;;;;;5064204;28;20504;-57
2021/08/01 02:19:41;;;;;;;7.75;6.32;;;16.90;99.90;;;;;;5062240;28;20188;-57
2021/08/01 02:22:08;;;;;;;7.75;6.38;;;17.10;99.90;;;;;;5055477;28;20622;-57
2021/08/01 02:24:35;;;;;;;6.95;6.35;;;16.70;99.90;;;;;;5062985;28;20185;-58
2021/08/01 02:27:02;;;;;;;7.45;6.70;;;16.90;99.90;;;;;;5066998;28;20247;-57
2021/08/01 02:29:29;;;;;;;8.18;6.20;;;16.90;99.90;;;;;;5058588;28;20195;-57
2021/08/01 02:31:55;;;;;;;6.75;6.05;;;16.70;99.90;;;;;;5080110;28;20212;-57
2021/08/01 02:34:24;;;;;;;6.88;6.28;;;17.00;99.90;;;;;;5058353;28;20179;-57
2021/08/01 02:36:51;;;;;;;6.97;6.40;;;17.10;99.90;;;;;;5060636;28;20205;-57
2021/08/01 02:39:17;;;;;;;7.03;6.43;;;17.10;99.90;;;;;;5057180;28;20182;-57
2021/08/01 02:41:45;;;;;;;9.15;6.78;;;17.10;99.90;;;;;;5056054;28;20185;-57
2021/08/01 02:44:15;;;;;;;7.45;6.85;;;17.00;99.90;;;;;;5065929;28;20181;-58
2021/08/01 02:46:42;;;;;;;6.82;6.10;;;16.90;99.90;;;;;;5084041;28;20206;-58
2021/08/01 02:49:15;;;;;;;6.57;5.97;;;16.80;99.90;;;;;;5058595;28;20192;-58
2021/08/01 02:51:41;;;;;;;7.03;6.32;;;16.80;99.90;;;;;;5058642;28;20178;-57
2021/08/01 02:54:09;;;;;;;9.67;6.13;;;16.90;99.90;;;;;;5058132;28;20223;-56
2021/08/01 02:56:35;;;;;;;8.10;6.70;;;17.10;99.90;;;;;;5050251;28;20463;-57
2021/08/01 02:59:02;;;;;;;7.03;6.32;;;17.10;99.90;;;;;;5069103;28;20189;-57
2021/08/01 03:01:30;;;;;;;8.15;7.35;;;17.00;99.90;;;;;;5063181;28;20192;-57
2021/08/01 03:03:56;;;;;;;7.35;6.63;;;16.70;99.90;;;;;;5063586;28;20707;-57
2021/08/01 03:06:22;;;;;;;7.72;7.03;;;16.60;99.90;;;;;;5064847;28;20632;-57
2021/08/01 03:08:48;;;;;;;7.93;7.00;;;16.80;99.90;;;;;;5065992;28;20185;-58
2021/08/01 03:11:21;;;;;;;7.77;7.03;;;16.50;99.90;;;;;;5061190;28;20562;-57
2021/08/01 03:13:47;;;;;;;7.28;6.47;;;16.70;99.90;;;;;;5067276;28;20180;-57
2021/08/01 03:16:13;;;;;;;8.27;6.30;;;16.60;99.90;;;;;;5054192;28;20223;-58
2021/08/01 03:18:38;;;;;;;8.23;6.43;;;16.60;99.90;;;;;;5057531;28;20185;-57
2021/08/01 03:21:04;;;;;;;9.20;7.17;;;16.80;99.90;;;;;;5065756;28;20560;-58
2021/08/01 03:23:29;;;;;;;8.10;6.97;;;16.60;99.90;;;;;;5058972;28;20276;-57
2021/08/01 03:25:55;;;;;;;8.63;6.80;;;16.60;99.90;;;;;;5086115;28;20216;-57
2021/08/01 03:28:21;;;;;;;7.37;6.60;;;16.50;99.90;;;;;;5059833;28;20185;-57
2021/08/01 03:30:46;;;;;;;7.73;6.70;;;16.70;99.90;;;;;;5057882;28;20235;-57
2021/08/01 03:33:12;;;;;;;6.13;5.63;;;16.40;99.90;;;;;;5060474;28;20280;-57
2021/08/01 03:35:37;;;;;;;7.40;6.80;;;16.50;99.90;;;;;;5082687;28;20208;-57
2021/08/01 03:38:03;;;;;;;5.57;4.97;;;16.50;99.90;;;;;;5078366;28;20515;-57
2021/08/01 03:40:28;;;;;;;6.07;5.43;;;16.70;99.90;;;;;;5063536;28;20577;-57
2021/08/01 03:42:54;;;;;;;6.63;6.03;;;16.80;99.90;;;;;;5059576;28;20216;-57
2021/08/01 03:45:20;;;;;;;6.67;5.97;;;16.90;99.90;;;;;;5060820;28;20248;-57
2021/08/01 03:47:45;;;;;;;5.77;5.23;;;16.90;99.90;;;;;;5052464;28;20208;-57
2021/08/01 03:50:11;;;;;;;7.00;5.63;;;16.90;99.90;;;;;;5067195;28;20190;-57
2021/08/01 03:52:37;;;;;;;5.33;4.83;;;16.80;99.90;;;;;;5057504;28;20648;-57
2021/08/01 03:55:04;;;;;;;5.88;4.80;;;17.00;99.90;;;;;;5057256;28;20182;-57
2021/08/01 03:57:29;;;;;;;8.23;5.47;;;16.80;99.90;;;;;;5054752;28;20508;-58
2021/08/01 03:59:55;;;;;;;5.93;5.43;;;16.60;99.90;;;;;;5063574;28;20189;-58
2021/08/01 04:02:21;;;;;;;6.00;5.17;;;16.80;99.90;;;;;;5062351;28;20235;-57
2021/08/01 04:04:46;;;;;;;8.50;5.90;;;16.80;99.90;;;;;;5063991;28;20196;-58
2021/08/01 04:07:12;;;;;;;5.77;5.20;;;16.70;99.90;;;;;;5053261;28;20672;-57
2021/08/01 04:09:37;;;;;;;7.67;5.77;;;16.70;99.90;;;;;;5053944;28;20534;-57
2021/08/01 04:12:03;;;;;;;7.00;6.40;;;16.80;99.90;;;;;;5061734;28;20187;-57
2021/08/01 04:14:31;;;;;;;6.80;5.93;;;16.60;99.90;;;;;;5075341;28;20667;-57
2021/08/01 04:17:00;;;;;;;5.70;5.20;;;16.70;99.90;;;;;;5068202;28;20495;-57
2021/08/01 04:19:26;;;;;;;8.30;6.75;;;16.70;99.90;;;;;;5064562;28;20181;-57
2021/08/01 04:21:52;;;;;;;11.20;7.03;;;16.70;99.90;;;;;;5054137;28;20185;-57
2021/08/01 04:24:17;;;;;;;7.03;6.10;;;16.40;99.90;;;;;;5083358;28;20184;-58
2021/08/01 04:26:43;;;;;;;7.20;6.50;;;16.50;99.90;;;;;;5066117;28;20474;-57
2021/08/01 04:29:08;;;;;;;7.40;6.63;;;16.60;99.90;;;;;;5068333;28;20184;-56
2021/08/01 04:31:34;;;;;;;7.13;6.50;;;16.50;99.90;;;;;;5060767;28;20213;-57
2021/08/01 04:34:00;;;;;;;7.07;6.43;;;16.40;99.90;;;;;;5054325;28;20264;-57
2021/08/01 04:36:26;;;;;;;7.70;7.00;;;16.30;99.90;;;;;;5065821;28;20459;-62
2021/08/01 04:38:51;;;;;;;6.32;5.80;;;16.70;99.90;;;;;;5064605;28;20188;-62
2021/08/01 04:41:17;;;;;;;8.93;6.70;;;16.40;99.90;;;;;;5061813;28;20765;-63
2021/08/01 04:43:43;;;;;;;7.57;6.87;;;16.20;99.90;;;;;;5064397;28;20193;-63
2021/08/01 04:46:09;;;;;;;7.07;6.40;;;16.40;99.90;;;;;;5062243;28;20209;-62
2021/08/01 04:48:34;;;;;;;9.80;6.50;;;16.40;99.90;;;;;;5067379;28;20290;-65
2021/08/01 04:51:00;;;;;;;7.27;6.67;;;16.20;99.90;;;;;;5068707;28;20678;-61
2021/08/01 04:53:26;;;;;;;6.63;6.07;;;16.40;99.90;;;;;;5063526;28;20187;-61
2021/08/01 04:55:51;;;;;;;7.83;6.43;;;16.50;99.90;;;;;;5061335;28;20622;-61
2021/08/01 04:58:17;;;;;;;7.53;6.53;;;16.20;99.90;;;;;;5059099;28;20189;-63
2021/08/01 05:00:42;;;;;;;7.20;6.47;;;16.50;99.90;;;;;;5061788;28;20455;-59
2021/08/01 05:03:08;;;;;;;8.57;6.17;;;16.50;99.90;;;;;;5069901;28;20204;-60
2021/08/01 05:05:39;;;;;;;7.10;6.50;;;16.40;99.90;;;;;;5063486;28;20283;-61
2021/08/01 05:08:05;;;;;;;6.55;6.05;;;16.40;99.90;;;;;;5067981;28;20188;-60
2021/08/01 05:10:32;;;;;;;6.72;6.22;;;16.50;99.90;;;;;;5060426;28;20644;-60
2021/08/01 05:12:58;;;;;;;5.68;5.18;;;16.50;99.90;;;;;;5054246;28;20181;-61
2021/08/01 05:15:24;;;;;;;8.87;5.43;;;16.40;99.90;;;;;;5072447;28;20714;-60
2021/08/01 05:17:51;;;;;;;5.68;5.20;;;16.30;99.90;;;;;;5068491;28;20530;-61
2021/08/01 05:20:17;;;;;;;5.93;5.33;;;16.70;99.90;;;;;;5057213;28;20267;-61
2021/08/01 05:22:43;;;;;;;6.45;5.95;;;16.70;99.90;;;;;;5054254;28;20177;-60
2021/08/01 05:25:09;;;;;;;5.90;5.30;;;16.30;99.90;;;;;;5057042;28;20193;-64
2021/08/01 05:27:34;;;;;;;6.03;5.38;;;16.50;99.90;;;;;;5055863;28;20189;-62
2021/08/01 05:30:00;;;;;;;6.40;5.80;;;16.70;99.90;;;;;;5061957;28;20685;-62
2021/08/01 05:32:31;;;;;;;6.32;5.70;;;16.80;99.90;;;;;;5063481;28;20187;-63
2021/08/01 05:34:56;;;;;;;6.28;5.68;;;16.70;99.90;;;;;;5060576;28;20181;-64
2021/08/01 05:37:22;;;;;;;6.20;5.60;;;16.60;99.90;;;;;;5058798;28;20185;-62
2021/08/01 05:39:47;;;;;;;6.93;6.23;;;16.40;99.90;;;;;;5055076;28;20280;-62
2021/08/01 05:42:13;;;;;;;7.33;5.67;;;17.00;99.90;;;;;;5067168;28;20177;-60
2021/08/01 05:44:39;;;;;;;6.00;5.50;;;17.10;99.90;;;;;;5060437;28;20209;-61
2021/08/01 05:47:07;;;;;;;6.17;5.67;;;17.10;99.90;;;;;;5062721;28;20228;-62
2021/08/01 05:49:33;;;;;;;6.47;5.82;;;17.20;99.90;;;;;;5065694;28;20178;-63
2021/08/01 05:51:59;;;;;;;5.47;4.97;;;17.10;99.90;;;;;;5076145;28;20732;-63
2021/08/01 05:54:25;;;;;;;5.87;5.47;;;16.80;99.90;;;;;;5063610;28;20198;-64
2021/08/01 05:56:50;;;;;;;5.60;5.10;;;16.90;99.90;;;;;;5053991;28;20456;-63
2021/08/01 05:59:16;;;;;;;5.30;4.80;;;17.00;99.90;;;;;;5058819;28;20276;-64
2021/08/01 06:01:42;;;;;;;5.53;5.07;;;16.60;99.90;;;;;;5063910;28;20190;-64
2021/08/01 06:04:07;;;;;;;6.03;5.53;;;17.10;99.90;;;;;;5084384;28;20185;-62
2021/08/01 06:06:33;;;;;;;5.83;4.90;;;17.00;99.90;;;;;;5055736;28;20228;-65
2021/08/01 06:08:58;;;;;;;6.37;5.40;;;17.00;99.90;;;;;;5053950;28;20602;-61
2021/08/01 06:11:24;;;;;;;5.60;5.10;;;17.20;99.90;;;;;;5063216;28;20185;-57
2021/08/01 06:13:50;;;;;;;5.87;5.30;;;17.00;99.90;;;;;;5070175;28;20605;-57
2021/08/01 06:16:16;;;;;;;6.23;5.07;;;17.10;99.90;;;;;;5069312;28;20595;-56
2021/08/01 06:18:43;;;;;;;6.00;5.40;;;16.90;99.90;;;;;;5067054;28;20208;-57
2021/08/01 06:21:22;;;;;;;6.53;5.28;;;17.20;99.90;;;;;;5066845;28;20632;-56
2021/08/01 06:23:50;;;;;;;5.80;5.30;;;17.10;99.90;;;;;;5064989;28;20208;-56
2021/08/01 06:26:17;;;;;;;5.65;5.10;;;17.20;99.90;;;;;;5067400;28;20212;-57
2021/08/01 06:28:43;;;;;;;8.30;6.43;;;17.00;99.90;;;;;;5070829;28;20216;-57
2021/08/01 06:31:10;;;;;;;7.00;6.30;;;17.00;99.90;;;;;;5072576;28;20196;-56
2021/08/01 06:33:36;;;;;;;8.68;7.97;;;17.20;99.90;;;;;;5067261;28;20176;-56
2021/08/01 06:36:08;;;;;;;7.47;6.78;;;17.20;99.90;;;;;;5058400;28;20220;-57
2021/08/01 06:38:34;;;;;;;5.72;5.22;;;17.30;99.90;;;;;;5060425;28;20185;-56
2021/08/01 06:40:59;;;;;;;6.47;5.90;;;17.50;99.90;;;;;;5065776;28;20191;-57
2021/08/01 06:43:25;;;;;;;6.47;5.97;;;17.60;99.90;;;;;;5073633;28;20447;-57
2021/08/01 06:45:50;;;;;;;8.63;7.73;;;17.50;99.90;;;;;;5067448;28;20688;-56
2021/08/01 06:48:16;;;;;;;5.50;5.00;;;17.60;99.90;;;;;;5059910;28;20280;-57
2021/08/01 06:50:42;;;;;;;5.60;5.17;;;17.70;99.90;;;;;;5062598;28;20189;-57
2021/08/01 06:53:07;;;;;;;5.87;5.10;;;17.70;99.90;;;;;;5064447;28;20173;-57
2021/08/01 06:55:33;;;;;;;4.90;4.50;;;17.80;99.90;;;;;;5057406;28;20200;-56
2021/08/01 06:57:58;;;;;;;5.47;4.80;;;17.90;99.90;;;;;;5065473;28;20199;-57
2021/08/01 07:00:24;;;;;;;5.83;5.43;;;18.00;99.90;;;;;;5067051;28;20185;-57
2021/08/01 07:02:53;;;;;;;4.80;4.37;;;18.20;99.90;;;;;;5068763;28;20193;-56
2021/08/01 07:05:19;;;;;;;4.80;4.40;;;18.40;99.90;;;;;;5054847;28;20214;-57
2021/08/01 07:07:45;;;;;;;5.60;5.05;;;18.50;99.90;;;;;;5062433;28;20556;-56
2021/08/01 07:10:11;;;;;;;5.73;4.57;;;18.60;99.90;;;;;;5053888;28;20262;-57
2021/08/01 07:12:41;;;;;;;4.67;4.37;;;18.50;99.90;;;;;;5060444;28;20215;-57
2021/08/01 07:15:14;;;;;;;4.53;4.13;;;18.40;99.90;;;;;;5068657;28;20600;-57
2021/08/01 07:17:40;;;;;;;5.70;4.95;;;18.30;99.90;;;;;;5060171;28;20183;-57
2021/08/01 07:20:09;;;;;;;6.18;4.25;;;18.10;99.90;;;;;;5066381;28;20268;-57
2021/08/01 07:22:35;;;;;;;5.20;4.70;;;18.10;99.90;;;;;;5052172;28;20213;-56
2021/08/01 07:25:01;;;;;;;5.22;4.82;;;18.30;99.90;;;;;;5057999;28;20188;-57
2021/08/01 07:27:26;;;;;;;5.53;4.93;;;18.30;99.90;;;;;;5061508;28;20205;-57
2021/08/01 07:29:52;;;;;;;5.50;4.53;;;18.10;99.90;;;;;;5064162;28;20893;-57
2021/08/01 07:32:17;;;;;;;5.20;4.80;;;18.20;99.90;;;;;;5065874;28;20184;-60
2021/08/01 07:34:43;;;;;;;5.63;5.00;;;18.40;99.90;;;;;;5069128;28;20185;-57
2021/08/01 07:37:09;;;;;;;6.03;5.37;;;18.30;99.90;;;;;;5062694;28;20248;-57
2021/08/01 07:39:34;;;;;;;5.83;5.33;;;18.10;99.90;;;;;;5052855;28;20212;-57
2021/08/01 07:42:00;;;;;;;6.47;5.87;;;17.90;99.90;;;;;;5062436;28;20177;-57
2021/08/01 07:44:28;;;;;;;5.40;4.87;;;18.10;99.90;;;;;;5065104;28;20201;-57
2021/08/01 07:46:54;;;;;;;6.07;5.30;;;18.00;99.90;;;;;;5053784;28;20197;-57
2021/08/01 07:49:19;;;;;;;6.43;5.40;;;18.00;99.90;;;;;;5071749;28;20222;-57
2021/08/01 07:51:45;;;;;;;5.00;4.60;;;18.00;99.90;;;;;;5068487;28;20279;-57
2021/08/01 07:54:10;;;;;;;5.17;4.77;;;18.00;99.90;;;;;;5064749;28;20189;-57
2021/08/01 07:56:36;;;;;;;4.93;4.53;;;18.00;99.90;;;;;;5069083;28;20216;-56
2021/08/01 07:59:02;;;;;;;5.93;5.43;;;17.90;99.90;;;;;;5060299;28;20680;-57
2021/08/01 08:01:27;;;;;;;5.73;4.93;;;17.60;99.90;;;;;;5063080;28;20176;-57
2021/08/01 08:03:53;;;;;;;5.37;4.97;;;17.90;99.90;;;;;;5063031;28;20180;-57
2021/08/01 08:06:19;;;;;;;5.73;5.23;;;17.80;99.90;;;;;;5055318;28;20722;-57
2021/08/01 08:08:44;;;;;;;5.53;5.03;;;18.00;99.90;;;;;;5052056;28;20186;-57
2021/08/01 08:11:10;;;;;;;5.93;5.33;;;17.90;99.90;;;;;;5058502;28;20212;-56
2021/08/01 08:13:36;;;;;;;7.30;5.50;;;17.70;99.90;;;;;;5050288;28;20640;-57
2021/08/01 08:16:01;;;;;;;5.73;5.23;;;17.60;99.90;;;;;;5060744;28;20485;-56
2021/08/01 08:18:27;;;;;;;7.90;5.57;;;17.60;99.90;;;;;;5064768;28;20189;-56
2021/08/01 08:20:53;;;;;;;5.97;5.37;;;17.60;99.90;;;;;;5058302;28;20268;-56
2021/08/01 08:23:18;;;;;;;5.93;5.33;;;17.60;99.90;;;;;;5064384;28;20268;-57
2021/08/01 08:25:44;;;;;;;6.43;5.83;;;17.40;99.90;;;;;;5054393;28;20989;-57
2021/08/01 08:28:10;;;;;;;6.33;5.37;;;17.40;99.90;;;;;;5062652;28;20276;-57
2021/08/01 08:30:35;;;;;;;5.57;5.17;;;17.50;99.90;;;;;;5062813;28;20192;-57
2021/08/01 08:33:01;;;;;;;4.90;4.50;;;17.70;99.90;;;;;;5064627;28;20177;-57
2021/08/01 08:35:27;;;;;;;4.93;4.53;;;17.60;99.90;;;;;;5065683;28;20329;-56
2021/08/01 08:37:53;;;;;;;4.07;3.73;;;17.80;99.90;;;;;;5068678;28;20173;-57
2021/08/01 08:40:23;;;;;;;3.90;3.60;;;17.60;99.90;;;;;;5071713;28;20178;-56
2021/08/01 08:42:50;;;;;;;4.50;4.10;;;17.80;99.90;;;;;;5064111;28;20177;-56
2021/08/01 08:45:16;;;;;;;4.20;3.90;;;17.60;99.90;;;;;;5064456;28;20192;-57
2021/08/01 08:47:47;;;;;;;4.65;4.25;;;17.60;99.90;;;;;;5069504;28;20665;-57
2021/08/01 08:50:15;;;;;;;5.03;4.40;;;17.90;99.90;;;;;;5065587;28;20218;-56
2021/08/01 08:52:46;;;;;;;6.70;6.20;;;18.10;99.90;;;;;;5067350;28;20203;-53
2021/08/01 08:55:13;;;;;;;4.15;3.85;;;18.00;99.90;;;;;;5068005;28;20195;-56
2021/08/01 08:57:44;;;;;;;5.80;3.65;;;18.10;99.90;;;;;;5059227;28;20184;-55
2021/08/01 09:00:11;;;;;;;4.75;4.35;;;18.10;99.90;;;;;;5067824;28;20659;-55
2021/08/01 09:02:38;;;;;;;4.28;3.85;;;18.20;99.90;;;;;;5067511;28;20196;-55
2021/08/01 09:05:09;;;;;;;5.38;4.72;;;18.10;99.90;;;;;;5065973;28;21173;-56
2021/08/01 09:07:40;;;;;;;4.85;4.40;;;17.90;99.90;;;;;;5074609;28;20205;-56
2021/08/01 09:10:07;;;;;;;6.18;4.80;;;18.10;99.90;;;;;;5067924;28;20188;-56
2021/08/01 09:12:40;;;;;;;4.47;3.95;;;18.30;99.90;;;;;;5066982;28;20552;-56
2021/08/01 09:15:15;;;;;;;5.03;4.50;;;18.50;99.90;;;;;;5051066;28;20280;-58
2021/08/01 09:17:41;;;;;;;5.22;4.72;;;18.70;99.90;;;;;;5061504;28;20169;-58
2021/08/01 09:20:31;;;;;;;5.10;4.57;;;19.00;99.90;;;;;;5064020;28;20187;-56
2021/08/01 09:23:00;;;;;;;4.80;4.40;;;19.30;99.90;;;;;;5070763;28;20644;-56
2021/08/01 09:25:32;;;;;;;4.50;4.10;;;19.50;99.90;;;;;;5067469;28;20212;-56
2021/08/01 09:28:14;;;;;;;4.13;3.83;;;19.80;99.90;;;;;;5060959;28;20184;-56
2021/08/01 09:30:44;;;;;;;4.30;4.00;;;20.10;99.90;;;;;;5062626;28;20212;-56
2021/08/01 09:33:10;;;;;;;7.93;4.40;;;19.80;99.90;;;;;;5063644;28;20184;-57
2021/08/01 09:35:37;;;;;;;6.77;4.23;;;20.00;99.90;;;;;;5066071;28;20213;-58
2021/08/01 09:38:03;;;;;;;4.30;3.90;;;19.80;99.90;;;;;;5063632;28;20170;-58
2021/08/01 09:40:31;;;;;;;4.10;3.73;;;20.00;99.90;;;;;;5062069;28;20750;-57
2021/08/01 09:43:10;;;;;;;4.05;3.55;;;20.00;99.90;;;;;;5067348;28;20184;-58
2021/08/01 09:45:36;;;;;;;3.60;3.30;;;20.00;99.90;;;;;;5068907;28;20291;-58
2021/08/01 09:48:20;;;;;;;3.88;3.50;;;19.90;99.90;;;;;;5061493;28;20216;-58
2021/08/01 09:51:11;;;;;;;3.90;3.60;;;19.70;99.90;;;;;;5066829;28;20205;-57
2021/08/01 09:53:39;;;;;;;4.40;4.00;;;19.70;99.90;;;;;;5059916;28;20182;-57
2021/08/01 09:56:18;;;;;;;3.55;3.25;;;19.50;99.90;;;;;;5065396;28;20238;-57
2021/08/01 09:58:45;;;;;;;3.30;3.00;;;19.50;99.90;;;;;;5062526;28;20271;-58
2021/08/01 10:01:11;;;;;;;4.53;3.40;;;19.50;99.90;;;;;;5070453;28;20626;-58
2021/08/01 10:03:42;;;;;;;3.33;3.03;;;19.50;99.90;;;;;;5070811;28;20196;-57
2021/08/01 10:06:18;;;;;;;3.63;2.90;;;19.50;99.90;;;;;;5067979;28;20263;-57
2021/08/01 10:08:45;;;;;;;3.97;3.60;;;19.40;99.90;;;;;;5063661;28;20190;-57
2021/08/01 10:11:12;;;;;;;4.00;3.70;;;19.40;99.90;;;;;;5065140;28;20181;-57
2021/08/01 10:13:39;;;;;;;3.92;3.50;;;19.50;99.90;;;;;;5056285;28;20188;-58
2021/08/01 10:16:07;;;;;;;3.38;3.17;;;19.50;99.90;;;;;;5069980;28;20221;-57
2021/08/01 10:18:32;;;;;;;3.78;3.40;;;19.60;99.90;;;;;;5070946;28;20185;-57
2021/08/01 10:20:58;;;;;;;4.40;3.40;;;19.80;99.90;;;;;;5065842;28;20200;-57
2021/08/01 10:23:27;;;;;;;3.97;3.67;;;19.90;99.90;;;;;;5061705;28;20545;-57
2021/08/01 10:25:54;;;;;;;3.30;3.10;;;20.10;99.90;;;;;;5056200;28;20213;-58
2021/08/01 10:28:23;;;;;;;4.05;3.75;;;20.30;99.90;;;;;;5064711;28;20213;-58
2021/08/01 10:30:51;;;;;;;4.78;2.97;;;20.50;99.90;;;;;;5055604;28;20185;-58
2021/08/01 10:33:23;;;;;;;3.65;3.33;;;20.60;99.90;;;;;;5051998;28;20212;-59
2021/08/01 10:35:56;;;;;;;3.67;3.28;;;21.00;99.90;;;;;;5057701;28;20209;-58
2021/08/01 10:38:25;;;;;;;3.45;3.15;;;21.20;99.90;;;;;;5082926;28;20675;-58
2021/08/01 10:40:57;;;;;;;2.80;2.60;;;21.50;99.90;;;;;;5068675;28;20188;-58
2021/08/01 10:43:29;;;;;;;3.70;2.60;;;21.50;99.90;;;;;;5067347;28;20451;-57
2021/08/01 10:45:56;;;;;;;2.90;2.70;;;21.70;99.90;;;;;;5059000;28;20563;-58
2021/08/01 10:48:23;;;;;;;3.00;2.80;;;21.70;99.90;;;;;;5060956;28;20437;-58
2021/08/01 10:50:50;;;;;;;3.20;2.90;;;21.70;99.90;;;;;;5062704;28;20493;-57
2021/08/01 10:53:18;;;;;;;3.00;2.80;;;21.90;99.90;;;;;;5057949;28;20215;-58
2021/08/01 10:55:45;;;;;;;3.50;3.20;;;22.10;99.90;;;;;;5059240;28;20535;-58
2021/08/01 10:58:12;;;;;;;3.50;3.20;;;22.20;99.90;;;;;;5066664;28;20428;-58
2021/08/01 11:01:01;;;;;;;3.60;3.30;;;22.00;99.90;;;;;;5063795;28;20427;-57
2021/08/01 11:03:32;;;;;;;3.20;2.87;;;22.00;99.90;;;;;;5062723;28;20981;-58
2021/08/01 11:06:01;;;;;;;3.40;3.10;;;21.90;99.90;;;;;;5062106;28;20529;-58
2021/08/01 11:08:27;;;;;;;3.93;3.00;;;22.10;99.90;;;;;;5067722;28;20436;-58
2021/08/01 11:11:14;;;;;;;3.60;3.10;;;22.00;99.90;;;;;;5081869;28;20785;-58
2021/08/01 11:13:49;;;;;;;3.60;3.20;;;21.90;99.90;;;;;;5052212;28;20277;-58
2021/08/01 11:16:41;;;;;;;3.43;3.13;;;21.70;99.90;;;;;;5068145;28;20228;-58
2021/08/01 11:19:33;;;;;;;4.13;3.72;;;21.70;99.90;;;;;;5055767;28;20443;-57
2021/08/01 11:21:59;;;;;;;4.50;4.10;;;21.90;99.90;;;;;;5063868;28;20192;-58
2021/08/01 11:24:25;;;;;;;3.93;3.63;;;21.80;99.90;;;;;;5051249;28;20531;-63
2021/08/01 11:27:11;;;;;;;4.13;3.83;;;22.00;99.90;;;;;;5060520;28;20231;-63
2021/08/01 11:30:02;;;;;;;4.93;4.47;;;21.40;99.90;;;;;;5066295;28;20213;-62
2021/08/01 11:32:29;;;;;;;3.97;3.67;;;21.60;99.90;;;;;;5054586;28;20442;-61
2021/08/01 11:35:17;;;;;;;4.37;3.97;;;22.20;99.90;;;;;;5066222;28;20511;-60
2021/08/01 11:37:43;;;;;;;4.43;4.13;;;22.40;99.90;;;;;;5056011;28;20494;-61
